createdAt,value
2018-07-22T00:01:28.686Z,4.60
2018-07-22T00:03:57.823Z,4.47
2018-07-22T00:06:26.721Z,4.67
2018-07-22T00:08:55.872Z,5.10
2018-07-22T00:11:24.744Z,4.75
2018-07-22T00:13:53.607Z,4.35
2018-07-22T00:16:22.515Z,4.50
2018-07-22T00:18:51.400Z,4.90
2018-07-22T00:21:20.256Z,4.70
2018-07-22T00:23:49.157Z,4.58
2018-07-22T00:26:18.013Z,5.25
2018-07-22T00:28:46.947Z,4.85
2018-07-22T00:31:15.876Z,5.00
2018-07-22T00:33:44.747Z,4.67
2018-07-22T00:36:13.615Z,5.62
2018-07-22T00:38:42.468Z,5.20
2018-07-22T00:41:11.320Z,5.20
2018-07-22T00:43:40.222Z,4.83
2018-07-22T00:46:09.318Z,5.78
2018-07-22T00:48:38.160Z,5.00
2018-07-22T00:51:07.139Z,5.33
2018-07-22T00:53:35.997Z,4.97
2018-07-22T00:56:04.871Z,5.80
2018-07-22T00:58:33.763Z,5.67
2018-07-22T01:01:02.639Z,5.20
2018-07-22T01:03:31.471Z,5.60
2018-07-22T01:06:00.379Z,5.78
2018-07-22T01:08:29.263Z,5.40
2018-07-22T01:10:58.107Z,5.47
2018-07-22T01:13:27.011Z,5.65
2018-07-22T01:15:55.863Z,5.72
2018-07-22T01:18:24.807Z,6.08
2018-07-22T01:20:53.695Z,6.12
2018-07-22T01:23:22.595Z,6.17
2018-07-22T01:25:51.503Z,6.47
2018-07-22T01:28:20.363Z,6.28
2018-07-22T01:30:49.215Z,5.95
2018-07-22T01:33:18.078Z,5.30
2018-07-22T01:35:46.930Z,6.05
2018-07-22T01:38:15.799Z,6.03
2018-07-22T01:40:44.678Z,6.40
2018-07-22T01:43:13.631Z,6.42
2018-07-22T01:45:42.511Z,6.30
2018-07-22T01:48:11.364Z,6.22
2018-07-22T01:50:40.226Z,5.90
2018-07-22T01:53:09.152Z,6.50
2018-07-22T01:55:38.068Z,5.83
2018-07-22T01:58:06.966Z,6.47
2018-07-22T02:00:35.805Z,6.00
2018-07-22T02:03:04.648Z,6.53
2018-07-22T02:05:33.532Z,6.90
2018-07-22T02:08:02.379Z,6.65
2018-07-22T02:10:31.343Z,6.85
2018-07-22T02:13:00.256Z,6.45
2018-07-22T02:15:29.102Z,6.70
2018-07-22T02:17:57.939Z,7.08
2018-07-22T02:20:26.930Z,6.90
2018-07-22T02:22:55.848Z,6.87
2018-07-22T02:25:24.745Z,7.25
2018-07-22T02:27:53.644Z,7.60
2018-07-22T02:30:22.524Z,7.03
2018-07-22T02:32:51.443Z,6.65
2018-07-22T02:35:20.317Z,7.78
2018-07-22T02:37:49.189Z,7.12
2018-07-22T02:40:18.059Z,7.28
2018-07-22T02:42:46.945Z,8.75
2018-07-22T02:45:15.856Z,8.23
2018-07-22T02:47:44.715Z,8.20
2018-07-22T02:50:13.614Z,7.85
2018-07-22T02:52:42.508Z,7.80
2018-07-22T02:55:11.352Z,7.95
2018-07-22T02:57:40.252Z,7.87
2018-07-22T03:00:09.122Z,8.08
2018-07-22T03:02:37.980Z,7.72
2018-07-22T03:05:06.871Z,7.45
2018-07-22T03:07:35.784Z,8.05
2018-07-22T03:10:04.934Z,7.77
2018-07-22T03:12:33.773Z,8.83
2018-07-22T03:15:02.629Z,8.45
2018-07-22T03:17:31.520Z,8.38
2018-07-22T03:20:00.392Z,8.50
2018-07-22T03:22:29.272Z,8.75
2018-07-22T03:24:58.119Z,9.10
2018-07-22T03:27:27.003Z,8.70
2018-07-22T03:29:56.032Z,10.43
2018-07-22T03:32:24.924Z,8.75
2018-07-22T03:34:53.887Z,8.93
2018-07-22T03:37:22.804Z,10.50
2018-07-22T03:39:51.650Z,11.97
2018-07-22T03:42:20.497Z,14.93
2018-07-22T03:44:49.463Z,16.23
2018-07-22T03:47:18.477Z,14.20
2018-07-22T03:49:47.361Z,12.58
2018-07-22T03:52:16.254Z,12.25
2018-07-22T03:54:45.147Z,13.88
2018-07-22T03:57:14.120Z,12.98
2018-07-22T03:59:43.050Z,13.70
2018-07-22T04:02:12.034Z,13.08
2018-07-22T04:04:40.900Z,14.07
2018-07-22T04:07:09.781Z,12.70
2018-07-22T04:09:38.618Z,15.10
2018-07-22T04:12:07.553Z,14.40
2018-07-22T04:14:36.426Z,15.20
2018-07-22T04:17:05.302Z,15.28
2018-07-22T04:19:34.164Z,14.97
2018-07-22T04:22:03.027Z,14.40
2018-07-22T04:24:31.939Z,14.07
2018-07-22T04:27:00.902Z,12.88
2018-07-22T04:29:29.767Z,12.95
2018-07-22T04:31:58.712Z,12.35
2018-07-22T04:34:27.560Z,11.70
2018-07-22T04:36:56.505Z,12.58
2018-07-22T04:39:25.425Z,11.57
2018-07-22T04:41:54.267Z,11.57
2018-07-22T04:44:23.182Z,12.65
2018-07-22T04:46:52.173Z,11.75
2018-07-22T04:49:21.865Z,11.57
2018-07-22T04:51:50.769Z,12.95
2018-07-22T04:54:19.656Z,12.07
2018-07-22T04:56:48.539Z,12.00
2018-07-22T04:59:17.440Z,11.70
2018-07-22T05:01:46.312Z,11.03
2018-07-22T05:04:15.186Z,12.45
2018-07-22T05:06:44.125Z,10.93
2018-07-22T05:09:13.529Z,10.65
2018-07-22T05:11:42.622Z,10.93
2018-07-22T05:14:11.491Z,9.88
2018-07-22T05:16:40.371Z,10.13
2018-07-22T05:19:09.283Z,10.25
2018-07-22T05:21:38.273Z,9.55
2018-07-22T05:24:07.200Z,9.73
2018-07-22T05:26:36.084Z,8.48
2018-07-22T05:29:04.966Z,8.10
2018-07-22T05:31:33.847Z,8.85
2018-07-22T05:34:02.764Z,7.62
2018-07-22T05:36:31.643Z,7.00
2018-07-22T05:39:00.531Z,7.25
2018-07-22T05:41:29.468Z,6.60
2018-07-22T05:43:58.364Z,6.83
2018-07-22T05:46:27.228Z,6.35
2018-07-22T05:48:56.092Z,6.62
2018-07-22T05:51:24.975Z,7.33
2018-07-22T05:53:53.876Z,6.15
2018-07-22T05:56:22.875Z,7.42
2018-07-22T05:58:51.816Z,7.00
2018-07-22T06:01:20.672Z,7.17
2018-07-22T06:03:49.570Z,7.70
2018-07-22T06:06:18.483Z,7.30
2018-07-22T06:08:47.373Z,7.40
2018-07-22T06:11:16.331Z,8.45
2018-07-22T06:13:45.289Z,7.47
2018-07-22T06:16:14.177Z,7.53
2018-07-22T06:18:43.057Z,8.48
2018-07-22T06:21:11.907Z,8.88
2018-07-22T06:23:40.840Z,7.78
2018-07-22T06:26:09.736Z,8.38
2018-07-22T06:28:38.593Z,9.03
2018-07-22T06:31:07.528Z,9.38
2018-07-22T06:33:36.450Z,9.78
2018-07-22T06:36:05.451Z,11.20
2018-07-22T06:38:34.335Z,12.45
2018-07-22T06:41:03.392Z,12.10
2018-07-22T06:43:32.259Z,11.70
2018-07-22T06:46:01.146Z,12.37
2018-07-22T06:48:30.028Z,12.45
2018-07-22T06:50:58.907Z,11.65
2018-07-22T06:53:27.832Z,11.85
2018-07-22T06:55:56.674Z,12.20
2018-07-22T06:58:25.578Z,11.95
2018-07-22T07:00:54.451Z,11.85
2018-07-22T07:03:23.345Z,13.85
2018-07-22T07:05:52.271Z,13.75
2018-07-22T07:08:21.212Z,12.13
2018-07-22T07:10:50.113Z,12.35
2018-07-22T07:13:19.208Z,12.25
2018-07-22T07:15:48.103Z,12.15
2018-07-22T07:18:16.957Z,12.20
2018-07-22T07:20:45.908Z,11.53
2018-07-22T07:23:14.745Z,11.18
2018-07-22T07:25:44.027Z,10.93
2018-07-22T07:28:13.000Z,11.05
2018-07-22T07:30:41.839Z,11.45
2018-07-22T07:33:10.819Z,10.85
2018-07-22T07:35:39.727Z,13.48
2018-07-22T07:38:08.636Z,10.60
2018-07-22T07:40:37.902Z,11.78
2018-07-22T07:43:07.816Z,11.43
2018-07-22T07:45:37.118Z,11.57
2018-07-22T07:48:06.984Z,11.60
2018-07-22T07:50:36.067Z,11.15
2018-07-22T07:53:05.633Z,11.45
2018-07-22T07:55:34.933Z,10.40
2018-07-22T07:58:04.542Z,12.18
2018-07-22T08:00:34.456Z,11.88
2018-07-22T08:03:03.759Z,10.58
2018-07-22T08:05:33.084Z,11.78
2018-07-22T08:08:02.051Z,10.68
2018-07-22T08:10:31.363Z,12.18
2018-07-22T08:13:00.958Z,11.57
2018-07-22T08:15:30.328Z,11.83
2018-07-22T08:17:59.869Z,11.10
2018-07-22T08:20:28.807Z,10.98
2018-07-22T08:22:58.160Z,10.65
2018-07-22T08:25:27.768Z,11.30
2018-07-22T08:27:57.073Z,10.58
2018-07-22T08:30:26.721Z,10.25
2018-07-22T08:32:56.296Z,9.73
2018-07-22T08:35:26.120Z,11.03
2018-07-22T08:37:55.448Z,11.40
2018-07-22T08:40:24.804Z,12.45
2018-07-22T08:42:53.689Z,12.60
2018-07-22T08:45:23.099Z,10.75
2018-07-22T08:47:52.353Z,11.53
2018-07-22T08:50:21.712Z,9.78
2018-07-22T08:52:50.571Z,10.78
2018-07-22T08:55:19.828Z,9.70
2018-07-22T08:57:48.767Z,10.78
2018-07-22T09:00:17.667Z,9.90
2018-07-22T09:02:46.561Z,10.50
2018-07-22T09:05:16.112Z,10.40
2018-07-22T09:07:45.283Z,11.03
2018-07-22T09:10:14.564Z,9.13
2018-07-22T09:12:43.802Z,10.98
2018-07-22T09:15:12.856Z,10.72
2018-07-22T09:17:42.980Z,9.58
2018-07-22T09:20:11.845Z,9.75
2018-07-22T09:22:41.084Z,10.18
2018-07-22T09:25:10.690Z,12.80
2018-07-22T09:27:39.939Z,9.95
2018-07-22T09:30:08.971Z,9.93
2018-07-22T09:32:37.907Z,12.25
2018-07-22T09:35:07.281Z,11.00
2018-07-22T09:37:36.355Z,10.68
2018-07-22T09:40:05.579Z,10.55
2018-07-22T09:42:35.088Z,11.10
2018-07-22T09:45:04.192Z,9.90
2018-07-22T09:47:33.415Z,8.70
2018-07-22T09:50:02.685Z,9.90
2018-07-22T09:52:32.365Z,10.32
2018-07-22T09:55:01.971Z,10.63
2018-07-22T09:57:30.965Z,11.10
2018-07-22T10:00:00.216Z,9.65
2018-07-22T10:02:29.940Z,8.93
2018-07-22T10:04:58.947Z,9.65
2018-07-22T10:07:28.498Z,9.40
2018-07-22T10:09:57.736Z,10.23
2018-07-22T10:12:27.064Z,10.43
2018-07-22T10:14:56.021Z,10.35
2018-07-22T10:17:25.679Z,10.35
2018-07-22T10:19:55.023Z,10.93
2018-07-22T10:22:24.892Z,11.12
2018-07-22T10:24:53.960Z,10.10
2018-07-22T10:27:25.348Z,11.10
2018-07-22T10:29:54.320Z,11.68
2018-07-22T10:32:23.479Z,12.15
2018-07-22T10:34:52.955Z,12.70
2018-07-22T10:37:21.837Z,11.48
2018-07-22T10:39:50.899Z,9.38
2018-07-22T10:42:20.244Z,11.38
2018-07-22T10:44:49.196Z,11.22
2018-07-22T10:47:18.095Z,9.95
2018-07-22T10:49:46.992Z,10.98
2018-07-22T10:52:15.988Z,10.82
2018-07-22T10:54:45.368Z,10.45
2018-07-22T10:57:14.867Z,10.10
2018-07-22T10:59:43.855Z,11.83
2018-07-22T11:02:15.249Z,9.83
2018-07-22T11:04:44.658Z,9.65
2018-07-22T11:07:18.159Z,10.18
2018-07-22T11:09:47.161Z,10.53
2018-07-22T11:12:20.493Z,9.30
2018-07-22T11:14:52.198Z,11.08
2018-07-22T11:17:23.942Z,10.88
2018-07-22T11:19:53.859Z,9.80
2018-07-22T11:22:22.780Z,8.30
2018-07-22T11:24:51.663Z,9.00
2018-07-22T11:27:20.575Z,9.30
2018-07-22T11:29:49.468Z,8.75
2018-07-22T11:32:19.055Z,8.60
2018-07-22T11:34:48.069Z,8.73
2018-07-22T11:37:21.658Z,9.65
2018-07-22T11:39:50.547Z,8.05
2018-07-22T11:42:20.016Z,8.58
2018-07-22T11:44:53.407Z,9.20
2018-07-22T11:47:25.228Z,9.08
2018-07-22T11:49:54.123Z,8.03
2018-07-22T11:52:23.972Z,8.88
2018-07-22T11:54:53.115Z,8.23
2018-07-22T11:57:22.020Z,8.95
2018-07-22T11:59:51.267Z,9.88
2018-07-22T12:02:20.283Z,10.25
2018-07-22T12:04:49.255Z,10.25
2018-07-22T12:07:18.873Z,11.10
2018-07-22T12:09:47.863Z,10.63
2018-07-22T12:12:17.534Z,10.88
2018-07-22T12:14:46.424Z,11.35
2018-07-22T12:17:15.332Z,11.28
2018-07-22T12:19:44.192Z,12.25
2018-07-22T12:22:13.108Z,11.15
2018-07-22T12:24:41.996Z,10.78
2018-07-22T12:27:10.886Z,11.65
2018-07-22T12:29:39.783Z,11.08
2018-07-22T12:32:08.692Z,11.43
2018-07-22T12:34:37.936Z,10.98
2018-07-22T12:37:06.831Z,10.55
2018-07-22T12:39:35.771Z,11.75
2018-07-22T12:42:04.720Z,11.60
2018-07-22T12:44:33.586Z,11.25
2018-07-22T12:47:02.518Z,11.83
2018-07-22T12:49:31.601Z,11.28
2018-07-22T12:52:00.738Z,11.03
2018-07-22T12:54:30.805Z,11.40
2018-07-22T12:57:01.095Z,10.63
2018-07-22T12:59:32.124Z,11.48
2018-07-22T13:02:03.814Z,10.95
2018-07-22T13:04:33.457Z,10.80
2018-07-22T13:07:02.515Z,11.43
2018-07-22T13:09:31.396Z,10.00
2018-07-22T13:12:02.580Z,10.85
2018-07-22T13:14:31.567Z,11.50
2018-07-22T13:17:02.115Z,11.25
2018-07-22T13:19:32.159Z,11.50
2018-07-22T13:22:01.571Z,12.50
2018-07-22T13:24:36.696Z,12.60
2018-07-22T13:27:05.664Z,13.05
2018-07-22T13:29:34.551Z,11.63
2018-07-22T13:32:07.173Z,10.50
2018-07-22T13:34:36.248Z,12.13
2018-07-22T13:37:06.610Z,11.60
2018-07-22T13:39:38.225Z,10.18
2018-07-22T13:42:11.358Z,10.38
2018-07-22T13:44:40.466Z,11.30
2018-07-22T13:47:11.669Z,10.20
2018-07-22T13:49:43.695Z,10.40
2018-07-22T13:52:12.809Z,10.95
2018-07-22T13:54:42.742Z,9.63
2018-07-22T13:57:11.640Z,9.63
2018-07-22T13:59:41.609Z,10.10
2018-07-22T14:02:11.818Z,11.78
2018-07-22T14:04:42.095Z,10.28
2018-07-22T14:07:10.970Z,9.55
2018-07-22T14:09:43.098Z,10.15
2018-07-22T14:12:13.397Z,9.30
2018-07-22T14:14:42.670Z,10.13
2018-07-22T14:17:11.675Z,9.75
2018-07-22T14:19:41.012Z,9.40
2018-07-22T14:22:10.261Z,9.95
2018-07-22T14:24:41.864Z,8.50
2018-07-22T14:27:11.743Z,8.73
2018-07-22T14:29:41.209Z,9.80
2018-07-22T14:32:10.476Z,9.08
2018-07-22T14:34:39.545Z,9.50
2018-07-22T14:37:09.144Z,9.03
2018-07-22T14:39:38.445Z,8.78
2018-07-22T14:42:07.449Z,9.78
2018-07-22T14:44:36.752Z,8.73
2018-07-22T14:47:06.385Z,8.80
2018-07-22T14:49:35.740Z,8.70
2018-07-22T14:52:05.272Z,8.15
2018-07-22T14:54:34.595Z,8.48
2018-07-22T14:57:03.515Z,8.78
2018-07-22T14:59:32.380Z,8.38
2018-07-22T15:02:01.333Z,8.25
2018-07-22T15:04:30.530Z,9.00
2018-07-22T15:06:59.871Z,8.38
2018-07-22T15:09:29.441Z,8.40
2018-07-22T15:11:58.419Z,8.63
2018-07-22T15:14:27.284Z,8.60
2018-07-22T15:16:56.177Z,8.20
2018-07-22T15:19:25.435Z,8.15
2018-07-22T15:21:54.790Z,7.70
2018-07-22T15:24:24.778Z,7.83
2018-07-22T15:26:53.926Z,8.55
2018-07-22T15:29:22.961Z,8.33
2018-07-22T15:31:52.207Z,8.90
2018-07-22T15:34:21.995Z,7.75
2018-07-22T15:36:50.927Z,8.60
2018-07-22T15:39:20.120Z,8.35
2018-07-22T15:41:49.010Z,7.47
2018-07-22T15:44:18.110Z,7.20
2018-07-22T15:46:47.111Z,8.13
2018-07-22T15:49:16.547Z,7.37
2018-07-22T15:51:46.627Z,8.70
2018-07-22T15:54:15.777Z,8.55
2018-07-22T15:56:45.841Z,6.97
2018-07-22T15:59:14.962Z,8.28
2018-07-22T16:01:43.908Z,8.50
2018-07-22T16:04:12.815Z,8.68
2018-07-22T16:06:41.752Z,8.13
2018-07-22T16:09:12.343Z,8.73
2018-07-22T16:11:42.408Z,10.68
2018-07-22T16:14:11.963Z,9.43
2018-07-22T16:16:40.863Z,9.90
2018-07-22T16:19:09.740Z,9.73
2018-07-22T16:21:38.715Z,10.72
2018-07-22T16:24:07.836Z,11.05
2018-07-22T16:26:36.893Z,9.70
2018-07-22T16:29:06.145Z,10.13
2018-07-22T16:31:35.125Z,11.30
2018-07-22T16:34:04.412Z,10.63
2018-07-22T16:36:33.348Z,10.95
2018-07-22T16:39:02.864Z,10.82
2018-07-22T16:41:32.085Z,10.50
2018-07-22T16:44:01.359Z,11.33
2018-07-22T16:46:30.351Z,11.45
2018-07-22T16:48:59.226Z,11.83
2018-07-22T16:51:28.119Z,12.33
2018-07-22T16:53:57.038Z,11.65
2018-07-22T16:56:25.916Z,10.88
2018-07-22T16:58:54.818Z,10.10
2018-07-22T17:01:23.764Z,12.03
2018-07-22T17:03:52.928Z,10.65
2018-07-22T17:06:21.860Z,10.70
2018-07-22T17:08:50.788Z,11.40
2018-07-22T17:11:19.630Z,11.97
2018-07-22T17:13:48.588Z,12.60
2018-07-22T17:16:17.617Z,12.35
2018-07-22T17:18:46.866Z,12.53
2018-07-22T17:21:15.876Z,11.63
2018-07-22T17:23:44.819Z,11.40
2018-07-22T17:26:13.732Z,11.05
2018-07-22T17:28:42.689Z,11.25
2018-07-22T17:31:11.708Z,12.05
2018-07-22T17:33:40.919Z,11.38
2018-07-22T17:36:09.815Z,11.85
2018-07-22T17:38:38.806Z,10.78
2018-07-22T17:41:07.771Z,10.40
2018-07-22T17:43:36.644Z,10.15
2018-07-22T17:46:05.611Z,11.15
2018-07-22T17:48:34.452Z,9.48
2018-07-22T17:51:03.793Z,9.60
2018-07-22T17:53:33.132Z,9.25
2018-07-22T17:56:02.067Z,8.90
2018-07-22T17:58:30.939Z,9.65
2018-07-22T18:00:59.828Z,9.05
2018-07-22T18:03:30.949Z,9.08
2018-07-22T18:06:00.121Z,8.23
2018-07-22T18:08:29.243Z,8.10
2018-07-22T18:10:58.135Z,7.95
2018-07-22T18:13:27.050Z,7.87
2018-07-22T18:15:55.959Z,8.33
2018-07-22T18:18:24.946Z,8.08
2018-07-22T18:20:53.883Z,8.60
2018-07-22T18:23:22.783Z,8.88
2018-07-22T18:25:51.710Z,8.63
2018-07-22T18:28:20.580Z,8.28
2018-07-22T18:30:49.522Z,8.30
2018-07-22T18:33:18.664Z,8.80
2018-07-22T18:35:47.595Z,8.85
2018-07-22T18:38:16.462Z,7.58
2018-07-22T18:40:45.349Z,7.97
2018-07-22T18:43:14.224Z,7.37
2018-07-22T18:45:43.291Z,8.35
2018-07-22T18:48:12.152Z,7.08
2018-07-22T18:50:41.071Z,8.95
2018-07-22T18:53:09.975Z,8.03
2018-07-22T18:55:38.890Z,7.70
2018-07-22T18:58:07.767Z,7.80
2018-07-22T19:00:36.660Z,8.03
2018-07-22T19:03:05.619Z,8.75
2018-07-22T19:05:34.519Z,7.72
2018-07-22T19:08:03.574Z,7.53
2018-07-22T19:10:32.511Z,7.35
2018-07-22T19:13:01.401Z,7.05
2018-07-22T19:15:30.252Z,7.25
2018-07-22T19:17:59.165Z,7.83
2018-07-22T19:20:28.033Z,6.83
2018-07-22T19:22:56.915Z,7.20
2018-07-22T19:25:25.767Z,6.80
2018-07-22T19:27:54.692Z,7.42
2018-07-22T19:30:23.660Z,7.15
2018-07-22T19:32:52.569Z,7.12
2018-07-22T19:35:21.474Z,7.58
2018-07-22T19:37:52.055Z,7.40
2018-07-22T19:40:24.000Z,7.45
2018-07-22T19:42:53.896Z,6.60
2018-07-22T19:45:23.667Z,7.30
2018-07-22T19:47:53.568Z,6.70
2018-07-22T19:50:22.868Z,6.47
2018-07-22T19:52:53.309Z,7.40
2018-07-22T19:55:22.571Z,7.58
2018-07-22T19:57:51.755Z,6.37
2018-07-22T20:00:21.221Z,6.75
2018-07-22T20:02:50.541Z,6.55
2018-07-22T20:05:20.041Z,6.33
2018-07-22T20:07:49.558Z,6.42
2018-07-22T20:10:19.090Z,8.03
2018-07-22T20:12:48.271Z,6.22
2018-07-22T20:15:17.744Z,5.85
2018-07-22T20:17:46.715Z,6.50
2018-07-22T20:20:15.660Z,6.33
2018-07-22T20:22:45.685Z,6.83
2018-07-22T20:25:16.375Z,6.35
2018-07-22T20:27:47.116Z,5.92
2018-07-22T20:30:19.453Z,5.97
2018-07-22T20:32:51.437Z,5.85
2018-07-22T20:35:21.196Z,5.28
2018-07-22T20:37:50.350Z,5.55
2018-07-22T20:40:19.340Z,5.28
2018-07-22T20:42:48.232Z,5.05
2018-07-22T20:45:17.945Z,5.87
2018-07-22T20:47:46.868Z,5.15
2018-07-22T20:50:15.756Z,4.85
2018-07-22T20:52:44.630Z,5.50
2018-07-22T20:55:13.528Z,5.03
2018-07-22T20:57:42.476Z,4.80
2018-07-22T21:00:11.467Z,4.70
2018-07-22T21:02:40.403Z,5.10
2018-07-22T21:05:09.363Z,5.20
2018-07-22T21:07:39.207Z,5.33
2018-07-22T21:10:08.288Z,4.95
2018-07-22T21:12:44.343Z,5.40
2018-07-22T21:15:13.801Z,5.05
2018-07-22T21:17:43.200Z,5.20
2018-07-22T21:20:12.055Z,5.25
2018-07-22T21:22:41.076Z,4.78
2018-07-22T21:25:09.935Z,5.00
2018-07-22T21:27:38.886Z,5.78
2018-07-22T21:30:08.618Z,5.70
2018-07-22T21:32:37.607Z,5.70
2018-07-22T21:35:06.580Z,4.95
2018-07-22T21:37:35.741Z,5.17
2018-07-22T21:40:05.158Z,5.00
2018-07-22T21:42:34.174Z,5.47
2018-07-22T21:45:03.660Z,4.90
2018-07-22T21:47:32.526Z,5.40
2018-07-22T21:50:01.414Z,5.35
2018-07-22T21:52:30.547Z,5.28
2018-07-22T21:54:59.398Z,5.35
2018-07-22T21:57:28.287Z,5.53
2018-07-22T21:59:57.137Z,5.50
2018-07-22T22:02:33.055Z,5.70
2018-07-22T22:05:03.134Z,5.22
2018-07-22T22:07:32.376Z,5.53
2018-07-22T22:10:01.586Z,5.87
2018-07-22T22:12:30.626Z,5.28
2018-07-22T22:15:04.813Z,5.40
2018-07-22T22:17:33.705Z,5.60
2018-07-22T22:20:02.666Z,6.05
2018-07-22T22:22:31.833Z,5.45
2018-07-22T22:25:00.696Z,6.28
2018-07-22T22:27:29.576Z,5.35
2018-07-22T22:29:58.492Z,5.53
2018-07-22T22:32:27.387Z,5.25
2018-07-22T22:34:56.296Z,5.55
2018-07-22T22:37:25.184Z,5.12
2018-07-22T22:39:54.066Z,5.62
2018-07-22T22:42:22.963Z,5.37
2018-07-22T22:44:51.867Z,5.12
2018-07-22T22:47:20.734Z,5.90
2018-07-22T22:49:49.567Z,5.42
2018-07-22T22:52:18.455Z,5.55
2018-07-22T22:54:47.331Z,6.10
2018-07-22T22:57:16.229Z,5.87
2018-07-22T22:59:45.067Z,5.72
2018-07-22T23:02:14.003Z,5.67
2018-07-22T23:04:42.929Z,6.40
2018-07-22T23:07:11.774Z,5.22
2018-07-22T23:09:40.648Z,5.28
2018-07-22T23:12:09.530Z,6.08
2018-07-22T23:14:38.367Z,5.10
2018-07-22T23:17:07.279Z,5.65
2018-07-22T23:19:36.134Z,5.20
2018-07-22T23:22:04.996Z,5.35
2018-07-22T23:24:33.844Z,6.25
2018-07-22T23:27:02.725Z,5.78
2018-07-22T23:29:31.603Z,6.08
2018-07-22T23:32:00.449Z,6.03
2018-07-22T23:34:29.309Z,6.50
2018-07-22T23:36:58.223Z,6.35
2018-07-22T23:39:27.120Z,6.47
2018-07-22T23:41:55.967Z,5.70
2018-07-22T23:44:24.854Z,6.00
2018-07-22T23:46:53.785Z,5.30
2018-07-22T23:49:22.640Z,5.30
2018-07-22T23:51:51.493Z,5.85
2018-07-22T23:54:20.367Z,5.20
2018-07-22T23:56:49.260Z,5.92
2018-07-22T23:59:18.111Z,6.03
